Terminal Aerodrome Forecast
Issued by NWS Louisville, KY

Home | Current Version | Previous Version | Text Only | Print | Product List | Glossary On
Versions: 1 2 3 4 5 6 7 8 9 10 11 12 13 14 15 16
036
FTUS43 KLMK 122322
TAFLEX
TAF
KLEX 122322Z 1300/1324 29010G17KT P6SM -SHSN BKN025
      TEMPO 1301/1303 3SM -SN BR
     FM130400 32010KT P6SM BKN035
     FM131400 31007KT P6SM SCT035=

USA.gov is the U.S. government's official web portal to all federal, state and local government web resources and services.